Time;durP1;ratioP1;P1;durP2;ratioP2;P2;SDS_P1;SDS_P2;PMS_P1;PMS_P2;Temp;Humidity;BMP_temperature;BMP_pressure;BME280_temperature;BME280_humidity;BME280_pressure;Samples;Min_cycle;Max_cycle;Signal;HPM_P1;HPM_P2
2022/11/22 00:00:47;;;;;;;21.48;10.80;;;;;;;-3.92;78.72;98900.66;4896531;29;20051;-67
2022/11/22 00:03:13;;;;;;;23.20;11.15;;;;;;;-3.99;78.12;98903.06;4879324;29;20059;-67
2022/11/22 00:05:38;;;;;;;25.70;11.75;;;;;;;-3.92;78.17;98896.28;4896226;29;20613;-67
2022/11/22 00:08:04;;;;;;;25.08;11.13;;;;;;;-3.94;78.32;98898.22;4894985;29;20044;-67
2022/11/22 00:10:30;;;;;;;23.90;10.55;;;;;;;-4.02;78.92;98892.19;4863699;29;20511;-68
2022/11/22 00:12:56;;;;;;;25.67;11.68;;;;;;;-4.00;78.51;98898.00;4894792;29;20051;-69
2022/11/22 00:15:22;;;;;;;24.55;11.30;;;;;;;-3.98;78.83;98883.94;4894820;29;20048;-68
2022/11/22 00:17:47;;;;;;;21.30;11.65;;;;;;;-3.98;78.79;98901.28;4895317;29;20068;-67
2022/11/22 00:20:13;;;;;;;25.10;11.10;;;;;;;-4.01;78.49;98894.63;4864016;29;20418;-68
2022/11/22 00:22:39;;;;;;;26.25;12.27;;;;;;;-4.08;79.11;98890.25;4895970;29;20103;-67
2022/11/22 00:25:06;;;;;;;20.75;9.68;;;;;;;-4.11;79.51;98873.25;4863966;29;20064;-68
2022/11/22 00:27:31;;;;;;;26.83;11.85;;;;;;;-4.06;80.01;98862.41;4875783;29;20228;-67
2022/11/22 00:29:57;;;;;;;20.70;10.30;;;;;;;-4.08;79.29;98875.50;4860580;29;20045;-67
2022/11/22 00:32:22;;;;;;;23.25;11.35;;;;;;;-4.02;79.60;98869.72;4876281;29;20045;-65
2022/11/22 00:34:48;;;;;;;27.27;11.80;;;;;;;-4.03;79.37;98859.50;4864156;29;20384;-67
2022/11/22 00:37:14;;;;;;;24.83;11.85;;;;;;;-3.95;79.24;98865.50;4883575;29;20433;-68
2022/11/22 00:39:39;;;;;;;27.98;12.68;;;;;;;-3.97;79.49;98861.47;4898003;29;20052;-68
2022/11/22 00:42:05;;;;;;;23.75;9.70;;;;;;;-3.94;78.96;98866.31;4897826;29;20048;-67
2022/11/22 00:44:31;;;;;;;23.45;11.27;;;;;;;-3.91;79.46;98864.25;4882676;29;20059;-67
2022/11/22 00:46:56;;;;;;;22.77;10.98;;;;;;;-3.92;79.80;98859.22;4897899;29;20058;-67
2022/11/22 00:49:22;;;;;;;23.98;9.60;;;;;;;-3.85;78.61;98854.22;4899415;29;20048;-67
2022/11/22 00:51:47;;;;;;;22.23;10.43;;;;;;;-3.85;79.33;98856.81;4898293;29;20048;-67
2022/11/22 00:54:13;;;;;;;28.08;11.75;;;;;;;-3.73;79.10;98845.19;4866588;29;20044;-67
2022/11/22 00:56:38;;;;;;;21.55;10.85;;;;;;;-3.79;78.99;98840.66;4881977;29;20478;-67
2022/11/22 00:59:04;;;;;;;27.17;11.95;;;;;;;-3.70;79.05;98839.69;4897807;29;20056;-68
2022/11/22 01:01:30;;;;;;;23.77;10.82;;;;;;;-3.74;78.44;98828.00;4882646;29;20135;-69
2022/11/22 01:03:55;;;;;;;23.50;11.68;;;;;;;-3.77;79.24;98825.75;4882563;29;20073;-67
2022/11/22 01:06:21;;;;;;;22.70;10.90;;;;;;;-3.83;79.41;98824.59;4882121;29;20061;-67
2022/11/22 01:08:47;;;;;;;21.00;8.85;;;;;;;-3.85;79.07;98831.75;4899020;29;20506;-67
2022/11/22 01:11:17;;;;;;;25.17;10.48;;;;;;;-3.83;79.40;98824.59;4882531;29;20044;-67
2022/11/22 01:13:43;;;;;;;17.85;8.30;;;;;;;-3.82;79.30;98821.06;4882484;29;20135;-66
2022/11/22 01:16:10;;;;;;;25.48;11.63;;;;;;;-3.76;79.60;98807.47;4899552;29;20136;-67
2022/11/22 01:18:36;;;;;;;29.13;11.73;;;;;;;-3.70;79.13;98800.84;4881879;29;20048;-66
2022/11/22 01:21:03;;;;;;;22.60;11.15;;;;;;;-3.72;79.09;98807.97;4897585;29;20418;-66
2022/11/22 01:23:29;;;;;;;22.85;10.70;;;;;;;-3.69;79.33;98802.44;4897547;29;20064;-68
2022/11/22 01:25:55;;;;;;;27.45;12.18;;;;;;;-3.61;79.32;98801.66;4881860;29;20060;-67
2022/11/22 01:28:21;;;;;;;21.38;10.30;;;;;;;-3.63;79.18;98796.63;4881840;29;20308;-67
2022/11/22 01:30:49;;;;;;;27.05;10.88;;;;;;;-3.63;79.34;98794.03;4881795;29;20135;-67
2022/11/22 01:33:15;;;;;;;20.65;8.95;;;;;;;-3.59;79.02;98784.97;4897534;29;20047;-67
2022/11/22 01:35:42;;;;;;;23.88;11.82;;;;;;;-3.64;79.22;98799.41;4897540;29;20045;-66
2022/11/22 01:38:07;;;;;;;19.77;9.73;;;;;;;-3.59;78.96;98797.13;4897883;29;20147;-67
2022/11/22 01:40:33;;;;;;;21.05;9.43;;;;;;;-3.56;78.97;98796.78;4898596;29;20132;-67
2022/11/22 01:42:59;;;;;;;22.90;10.27;;;;;;;-3.63;79.34;98791.44;4898467;29;20084;-66
2022/11/22 01:45:28;;;;;;;19.83;8.95;;;;;;;-3.68;79.37;98789.34;4864935;29;20553;-67
2022/11/22 01:47:59;;;;;;;27.27;11.68;;;;;;;-3.65;79.88;98793.38;4881086;29;20085;-66
2022/11/22 01:50:25;;;;;;;22.90;10.48;;;;;;;-3.74;79.83;98784.78;4881499;29;20094;-69
2022/11/22 01:52:51;;;;;;;18.35;8.98;;;;;;;-3.97;79.94;98739.78;4896994;29;20475;-68
2022/11/22 01:55:17;;;;;;;23.42;10.75;;;;;;;-3.75;79.54;98777.19;4897089;29;20423;-69
2022/11/22 01:57:44;;;;;;;24.40;11.13;;;;;;;-3.75;80.07;98772.81;4865466;29;20418;-70
2022/11/22 02:00:13;;;;;;;22.15;9.57;;;;;;;-3.83;80.28;98769.41;4865594;29;20464;-68
2022/11/22 02:02:45;;;;;;;22.05;10.65;;;;;;;-3.80;80.30;98764.72;4850967;29;20040;-69
2022/11/22 02:05:14;;;;;;;23.58;10.93;;;;;;;-3.75;80.50;98762.47;4881247;29;20059;-68
2022/11/22 02:08:02;;;;;;;22.45;10.27;;;;;;;-3.79;80.80;98757.78;4898035;29;20253;-69
2022/11/22 02:10:29;;;;;;;17.58;8.82;;;;;;;-3.77;80.48;98742.88;4881066;29;20104;-65
2022/11/22 02:12:57;;;;;;;18.85;8.82;;;;;;;-3.70;80.29;98743.88;4880955;29;20068;-64
2022/11/22 02:15:23;;;;;;;23.48;11.18;;;;;;;-3.74;80.73;98734.78;4881400;29;20048;-64
2022/11/22 02:17:48;;;;;;;22.42;10.75;;;;;;;-3.71;80.19;98734.44;4846896;29;20471;-63
2022/11/22 02:20:16;;;;;;;28.10;11.40;;;;;;;-3.59;80.41;98738.34;4877931;29;20052;-64
2022/11/22 02:22:47;;;;;;;23.38;9.30;;;;;;;-3.61;80.42;98729.13;4846986;29;20075;-65
2022/11/22 02:25:28;;;;;;;24.95;11.20;;;;;;;-3.63;80.13;98731.88;4877896;29;20053;-63
2022/11/22 02:27:54;;;;;;;22.15;10.30;;;;;;;-3.58;80.05;98723.63;4877664;29;20060;-65
2022/11/22 02:30:20;;;;;;;27.25;10.43;;;;;;;-3.58;80.26;98719.25;4877883;29;20048;-65
2022/11/22 02:32:46;;;;;;;22.95;10.00;;;;;;;-3.52;80.08;98713.41;4877912;29;20423;-65
2022/11/22 02:35:17;;;;;;;20.58;9.50;;;;;;;-3.46;79.83;98710.16;4879494;29;20494;-64
2022/11/22 02:37:43;;;;;;;23.75;10.50;;;;;;;-3.47;80.19;98713.72;4877563;29;20061;-65
2022/11/22 02:40:13;;;;;;;31.63;11.68;;;;;;;-3.48;80.43;98709.50;4880633;29;20044;-65
2022/11/22 02:42:39;;;;;;;23.30;10.55;;;;;;;-3.54;80.54;98691.22;4896121;29;20048;-64
2022/11/22 02:45:05;;;;;;;23.95;9.48;;;;;;;-3.53;80.38;98687.66;4896148;29;20494;-65
2022/11/22 02:47:31;;;;;;;19.95;9.25;;;;;;;-3.55;80.45;98680.06;4895721;29;20111;-64
2022/11/22 02:49:56;;;;;;;16.98;8.90;;;;;;;-3.55;80.87;98682.66;4896870;29;20554;-64
2022/11/22 02:52:22;;;;;;;24.80;9.50;;;;;;;-3.49;80.49;98683.78;4897401;29;20040;-63
2022/11/22 02:54:48;;;;;;;21.90;10.30;;;;;;;-3.43;80.16;98683.13;4880211;29;20048;-64
2022/11/22 02:57:13;;;;;;;20.35;10.15;;;;;;;-3.41;80.33;98683.78;4880073;29;20044;-66
2022/11/22 02:59:39;;;;;;;16.25;8.55;;;;;;;-3.38;79.92;98665.28;4896831;29;20053;-69
2022/11/22 03:02:05;;;;;;;23.08;9.68;;;;;;;-3.35;80.36;98666.72;4895834;29;20080;-68
2022/11/22 03:04:30;;;;;;;23.27;10.20;;;;;;;-3.31;80.64;98662.84;4895774;29;20492;-70
2022/11/22 03:06:57;;;;;;;17.75;8.63;;;;;;;-3.34;79.84;98661.38;4880369;29;20112;-69
2022/11/22 03:09:24;;;;;;;17.15;8.27;;;;;;;-3.42;80.18;98651.03;4879430;29;20040;-68
2022/11/22 03:11:50;;;;;;;21.25;9.35;;;;;;;-3.34;80.29;98655.41;4895411;29;20041;-68
2022/11/22 03:14:16;;;;;;;20.02;9.65;;;;;;;-3.29;80.38;98651.34;4895615;29;20048;-69
2022/11/22 03:16:43;;;;;;;24.02;10.18;;;;;;;-3.30;80.50;98660.06;4895815;29;20143;-69
2022/11/22 03:19:09;;;;;;;21.35;8.65;;;;;;;-3.28;79.96;98649.56;4895357;29;20053;-68
2022/11/22 03:21:35;;;;;;;22.50;9.98;;;;;;;-3.24;80.70;98643.03;4894979;29;20052;-68
2022/11/22 03:24:00;;;;;;;17.80;9.52;;;;;;;-3.31;79.97;98631.75;4896492;29;20041;-68
2022/11/22 03:26:26;;;;;;;15.90;8.82;;;;;;;-3.26;80.44;98621.69;4879960;29;20140;-68
2022/11/22 03:28:51;;;;;;;18.13;7.38;;;;;;;-3.26;80.31;98635.44;4896688;29;20065;-68
2022/11/22 03:31:17;;;;;;;18.65;8.50;;;;;;;-3.28;80.44;98624.44;4879902;29;20418;-67
2022/11/22 03:33:43;;;;;;;21.63;9.18;;;;;;;-3.25;80.69;98621.50;4896442;29;20056;-67
2022/11/22 03:36:08;;;;;;;19.13;8.52;;;;;;;-3.20;80.57;98621.81;4895838;29;20041;-68
2022/11/22 03:38:34;;;;;;;16.40;8.05;;;;;;;-3.24;80.69;98625.72;4880004;29;20498;-67
2022/11/22 03:41:00;;;;;;;23.50;10.38;;;;;;;-3.24;81.47;98612.75;4895205;29;20056;-67
2022/11/22 03:43:26;;;;;;;17.23;6.75;;;;;;;-3.23;81.06;98609.19;4896197;29;20124;-68
2022/11/22 03:45:52;;;;;;;22.00;9.23;;;;;;;-3.21;80.76;98609.84;4879597;29;20052;-68
2022/11/22 03:48:18;;;;;;;20.58;9.98;;;;;;;-3.16;80.68;98598.97;4879514;29;20128;-68
2022/11/22 03:50:43;;;;;;;23.65;11.10;;;;;;;-3.17;81.34;98601.72;4879382;29;20137;-67
2022/11/22 03:53:10;;;;;;;21.08;8.77;;;;;;;-3.13;80.92;98595.22;4878848;29;20076;-68
2022/11/22 03:55:36;;;;;;;20.55;8.65;;;;;;;-3.18;81.09;98594.91;4879567;29;20434;-68
2022/11/22 03:58:02;;;;;;;19.50;9.95;;;;;;;-3.18;80.94;98605.28;4879822;29;20059;-68
2022/11/22 04:00:28;;;;;;;17.23;8.00;;;;;;;-3.12;81.44;98597.63;4896036;29;20140;-70
2022/11/22 04:02:53;;;;;;;17.60;8.18;;;;;;;-3.12;80.95;98597.63;4894208;29;20048;-68
2022/11/22 04:05:19;;;;;;;19.95;9.60;;;;;;;-3.15;81.62;98579.03;4896288;29;20419;-68
2022/11/22 04:07:45;;;;;;;20.88;9.55;;;;;;;-3.11;81.24;98586.31;4896982;29;20052;-69
2022/11/22 04:10:10;;;;;;;18.75;8.38;;;;;;;-3.10;80.94;98581.91;4900233;29;20060;-67
2022/11/22 04:12:36;;;;;;;17.30;8.45;;;;;;;-3.07;81.81;98584.97;4882679;29;20044;-67
2022/11/22 04:15:08;;;;;;;20.73;10.30;;;;;;;-3.01;81.42;98583.50;4899492;29;20059;-69
2022/11/22 04:17:39;;;;;;;23.30;9.13;;;;;;;-3.02;81.88;98579.28;4898665;29;20085;-68
2022/11/22 04:23:14;;;;;;;20.15;8.30;;;;;;;-2.88;81.42;98562.19;4884930;29;20048;-68
2022/11/22 04:25:45;;;;;;;20.70;8.63;;;;;;;-2.93;81.46;98556.72;4899573;29;20056;-68
2022/11/22 04:28:13;;;;;;;19.40;8.20;;;;;;;-2.97;81.95;98551.88;4898343;29;20048;-68
2022/11/22 04:33:23;;;;;;;20.00;8.88;;;;;;;-3.03;82.28;98562.09;4899390;29;20048;-68
2022/11/22 04:35:49;;;;;;;13.65;7.80;;;;;;;-2.99;82.21;98555.63;4882293;29;20469;-68
2022/11/22 04:38:16;;;;;;;26.67;10.93;;;;;;;-3.00;82.88;98549.63;4898325;29;20056;-68
2022/11/22 04:40:43;;;;;;;21.85;9.13;;;;;;;-3.01;82.43;98554.97;4882680;29;20056;-67
2022/11/22 04:45:57;;;;;;;17.55;9.13;;;;;;;-2.95;82.81;98543.13;4898261;29;20410;-68
2022/11/22 04:48:23;;;;;;;21.58;9.77;;;;;;;-2.97;82.53;98538.91;4898115;29;20051;-68
2022/11/22 04:53:33;;;;;;;19.42;9.30;;;;;;;-2.92;82.66;98533.19;4898346;29;20052;-66
2022/11/22 04:55:58;;;;;;;24.23;9.90;;;;;;;-2.92;82.27;98529.81;4882533;29;20112;-66
2022/11/22 04:58:24;;;;;;;23.70;9.18;;;;;;;-2.98;82.74;98526.91;4898114;29;20045;-65
2022/11/22 05:00:50;;;;;;;25.45;10.43;;;;;;;-2.91;83.03;98536.59;4897750;29;20136;-65
2022/11/22 05:03:16;;;;;;;19.63;9.32;;;;;;;-2.89;82.11;98525.06;4882474;29;20045;-65
2022/11/22 05:05:44;;;;;;;19.77;9.20;;;;;;;-2.88;81.97;98521.53;4898955;29;20048;-64
2022/11/22 05:08:09;;;;;;;15.35;7.40;;;;;;;-2.88;82.01;98511.16;4897248;29;20044;-66
2022/11/22 05:13:22;;;;;;;17.15;9.23;;;;;;;-2.82;81.40;98499.28;4884984;29;20034;-64
2022/11/22 05:15:50;;;;;;;20.20;8.43;;;;;;;-2.79;82.25;98494.53;4897945;29;20143;-66
2022/11/22 05:18:19;;;;;;;18.27;8.77;;;;;;;-2.81;81.83;98490.50;4898250;29;20119;-66
2022/11/22 05:20:45;;;;;;;21.27;10.10;;;;;;;-2.86;81.46;98492.81;4881279;29;20475;-65
2022/11/22 05:25:57;;;;;;;16.23;7.85;;;;;;;-2.76;81.65;98480.44;4876430;29;20135;-64
2022/11/22 05:28:22;;;;;;;13.77;7.20;;;;;;;-2.86;81.78;98464.28;4879246;29;20045;-67
2022/11/22 05:30:48;;;;;;;10.02;5.93;;;;;;;-2.80;81.70;98466.97;4864034;29;20071;-69
2022/11/22 05:33:14;;;;;;;19.13;8.27;;;;;;;-2.79;81.90;98468.59;4879636;29;20396;-69
2022/11/22 05:35:40;;;;;;;16.95;7.55;;;;;;;-2.81;81.89;98457.59;4896849;29;20052;-67
2022/11/22 05:38:05;;;;;;;19.60;8.05;;;;;;;-2.77;82.10;98452.84;4897269;29;20158;-69
2022/11/22 05:40:34;;;;;;;23.15;8.70;;;;;;;-2.72;82.45;98458.34;4880168;29;20032;-67
2022/11/22 05:43:06;;;;;;;19.42;8.43;;;;;;;-2.78;82.16;98453.84;4851049;29;20127;-69
2022/11/22 05:45:32;;;;;;;17.73;8.82;;;;;;;-2.76;81.96;98457.06;4897217;29;20133;-68
2022/11/22 05:47:57;;;;;;;18.58;8.68;;;;;;;-2.73;82.15;98464.50;4896628;29;20052;-70
2022/11/22 05:50:23;;;;;;;22.00;10.52;;;;;;;-2.67;82.14;98456.03;4881167;29;20057;-68
2022/11/22 05:52:53;;;;;;;23.27;9.63;;;;;;;-2.61;82.04;98452.72;4881407;29;20044;-70
2022/11/22 05:55:19;;;;;;;21.60;9.10;;;;;;;-2.59;82.07;98458.56;4898082;29;20053;-68
2022/11/22 05:57:45;;;;;;;14.32;7.75;;;;;;;-2.67;82.20;98445.66;4897992;29;20051;-70
2022/11/22 06:00:11;;;;;;;18.33;8.40;;;;;;;-2.72;82.27;98444.56;4881302;29;20053;-70
2022/11/22 06:02:40;;;;;;;19.92;8.75;;;;;;;-2.60;82.15;98430.97;4880232;29;20136;-69
2022/11/22 06:05:06;;;;;;;17.35;6.72;;;;;;;-2.60;81.81;98430.97;4897907;29;20060;-68
2022/11/22 06:07:32;;;;;;;17.25;8.68;;;;;;;-2.52;82.14;98435.31;4896711;29;20132;-68
2022/11/22 06:09:57;;;;;;;17.75;6.88;;;;;;;-2.50;81.68;98430.72;4897753;29;20160;-70
2022/11/22 06:12:23;;;;;;;21.60;8.45;;;;;;;-2.49;81.82;98426.34;4880178;29;20048;-68
2022/11/22 06:14:49;;;;;;;19.75;8.98;;;;;;;-2.47;82.09;98419.19;4896333;29;20131;-69
2022/11/22 06:17:14;;;;;;;18.10;8.40;;;;;;;-2.46;82.06;98420.81;4897210;29;20045;-70
2022/11/22 06:19:40;;;;;;;15.85;7.43;;;;;;;-2.44;82.21;98411.88;4896555;29;20048;-69
2022/11/22 06:22:07;;;;;;;20.02;8.30;;;;;;;-2.45;82.45;98431.00;4880428;29;20568;-68
2022/11/22 06:24:33;;;;;;;16.13;7.57;;;;;;;-2.50;82.48;98422.94;4895898;29;20042;-68
2022/11/22 06:26:59;;;;;;;14.07;6.70;;;;;;;-2.46;83.02;98421.63;4897526;29;20048;-69
2022/11/22 06:29:25;;;;;;;18.45;6.82;;;;;;;-2.46;82.74;98432.00;4897307;29;20052;-68
2022/11/22 06:31:50;;;;;;;17.80;8.45;;;;;;;-2.41;83.12;98416.72;4897000;29;20044;-68
2022/11/22 06:34:16;;;;;;;21.10;7.90;;;;;;;-2.41;83.25;98418.47;4877142;29;20052;-68
2022/11/22 06:36:41;;;;;;;17.52;8.27;;;;;;;-2.36;83.25;98427.34;4892764;29;20064;-69
2022/11/22 06:39:07;;;;;;;15.27;7.60;;;;;;;-2.34;83.61;98417.59;4897161;29;20047;-69
2022/11/22 06:41:35;;;;;;;17.83;7.88;;;;;;;-2.34;84.42;98409.00;4896743;29;20056;-68
2022/11/22 06:44:04;;;;;;;13.07;6.57;;;;;;;-2.29;84.01;98411.88;4880053;29;20072;-68
2022/11/22 06:46:30;;;;;;;15.38;7.43;;;;;;;-2.32;83.88;98400.06;4879318;29;20135;-67
2022/11/22 06:48:55;;;;;;;21.00;8.70;;;;;;;-2.31;84.01;98399.06;4897057;29;20047;-68
2022/11/22 06:51:27;;;;;;;14.68;6.18;;;;;;;-2.25;84.03;98387.16;4895678;29;20154;-68
2022/11/22 06:53:55;;;;;;;18.30;7.80;;;;;;;-2.23;83.96;98408.56;4895488;29;20037;-67
2022/11/22 06:56:24;;;;;;;12.70;6.47;;;;;;;-2.18;83.76;98389.84;4867464;29;20056;-67
2022/11/22 06:58:51;;;;;;;13.52;5.65;;;;;;;-2.13;84.25;98385.72;4880004;29;20037;-67
2022/11/22 07:01:23;;;;;;;14.95;7.20;;;;;;;-1.99;84.12;98386.69;4879963;29;20052;-68
2022/11/22 07:03:49;;;;;;;13.82;7.72;;;;;;;-1.82;83.91;98382.09;4879990;29;20040;-68
2022/11/22 07:06:17;;;;;;;13.82;5.57;;;;;;;-1.83;83.61;98383.06;4862885;29;21025;-67
2022/11/22 07:08:43;;;;;;;14.68;7.43;;;;;;;-1.70;82.92;98374.66;4861159;29;20040;-67
2022/11/22 07:11:11;;;;;;;16.05;6.80;;;;;;;-1.57;83.14;98372.16;4877866;29;20045;-67
2022/11/22 07:13:37;;;;;;;11.68;5.40;;;;;;;-1.58;82.83;98380.16;4876584;29;20522;-68
2022/11/22 07:16:05;;;;;;;15.77;6.88;;;;;;;-1.60;83.27;98367.34;4888580;29;20048;-68
2022/11/22 07:18:32;;;;;;;18.33;7.00;;;;;;;-1.54;83.05;98374.41;4895345;29;20426;-69
2022/11/22 07:21:05;;;;;;;15.15;7.15;;;;;;;-1.62;83.28;98370.16;4848854;29;20060;-69
2022/11/22 07:23:31;;;;;;;11.60;6.43;;;;;;;-1.57;82.95;98366.97;4864176;29;20052;-68
2022/11/22 07:25:56;;;;;;;12.38;6.85;;;;;;;-1.55;83.27;98357.22;4896281;29;20401;-68
2022/11/22 07:28:22;;;;;;;12.20;5.97;;;;;;;-1.50;82.96;98372.22;4895696;29;20563;-67
2022/11/22 07:30:48;;;;;;;8.82;4.20;;;;;;;-1.61;83.28;98355.34;4895031;29;20127;-67
2022/11/22 07:33:17;;;;;;;14.07;6.10;;;;;;;-1.56;83.64;98358.19;4864012;29;20044;-67
2022/11/22 07:35:43;;;;;;;13.82;6.38;;;;;;;-1.57;83.82;98358.38;4895963;29;20123;-67
2022/11/22 07:38:08;;;;;;;14.18;6.10;;;;;;;-1.55;83.90;98362.41;4875033;29;20177;-67
2022/11/22 07:40:34;;;;;;;12.38;5.57;;;;;;;-1.63;84.08;98359.91;4857754;29;20060;-64
2022/11/22 07:43:00;;;;;;;13.40;6.65;;;;;;;-1.55;84.33;98367.59;4872504;29;20065;-64
2022/11/22 07:45:25;;;;;;;11.90;6.20;;;;;;;-1.46;84.90;98365.69;4864219;29;20053;-63
2022/11/22 07:47:51;;;;;;;9.85;4.75;;;;;;;-1.51;83.98;98362.84;4839336;29;20097;-63
2022/11/22 07:50:17;;;;;;;13.88;6.90;;;;;;;-1.51;84.76;98368.03;4869627;29;20045;-63
2022/11/22 07:52:43;;;;;;;14.15;5.93;;;;;;;-1.44;85.09;98353.28;4853659;29;20557;-62
2022/11/22 07:55:08;;;;;;;16.08;7.10;;;;;;;-1.36;85.25;98355.78;4839886;29;20045;-64
2022/11/22 07:57:35;;;;;;;15.77;6.90;;;;;;;-1.34;84.44;98343.41;4856068;29;20085;-61
2022/11/22 08:00:03;;;;;;;10.63;5.55;;;;;;;-1.35;84.17;98349.63;4851265;29;20579;-64
2022/11/22 08:02:31;;;;;;;9.90;5.25;;;;;;;-1.39;84.22;98351.75;4869796;29;20065;-63
2022/11/22 08:04:56;;;;;;;10.77;5.55;;;;;;;-1.38;84.14;98349.97;4858042;29;20143;-64
2022/11/22 08:07:22;;;;;;;12.43;6.40;;;;;;;-1.35;84.52;98341.81;4857272;29;20052;-64
2022/11/22 08:09:48;;;;;;;10.68;5.88;;;;;;;-1.26;84.13;98339.88;4856589;29;20050;-63
2022/11/22 08:12:13;;;;;;;8.93;4.30;;;;;;;-1.27;83.73;98348.66;4849778;29;20034;-62
2022/11/22 08:14:39;;;;;;;10.20;5.10;;;;;;;-1.26;84.09;98345.09;4836613;29;20552;-61
2022/11/22 08:17:05;;;;;;;8.52;4.43;;;;;;;-1.20;83.95;98342.53;4837133;29;20525;-62
2022/11/22 08:19:34;;;;;;;10.25;5.07;;;;;;;-1.08;83.88;98349.84;4821423;29;20042;-63
2022/11/22 08:22:00;;;;;;;8.73;4.95;;;;;;;-1.04;83.60;98346.66;4836358;29;20046;-62
2022/11/22 08:24:30;;;;;;;8.32;5.15;;;;;;;-1.01;83.24;98337.69;4836640;29;20526;-63
2022/11/22 08:26:56;;;;;;;;;;;;;;;-1.01;83.07;98342.88;4822675;29;20153;-64
2022/11/22 08:29:22;;;;;;;16.63;4.82;;;;;;;-1.01;83.44;98343.69;4839863;29;19960;-65
2022/11/22 08:31:48;;;;;;;7.80;4.68;;;;;;;-1.13;84.65;98337.38;4840111;29;20034;-63
2022/11/22 08:34:14;;;;;;;12.52;4.75;;;;;;;-1.03;84.97;98334.44;4858859;29;20045;-63
2022/11/22 08:36:40;;;;;;;7.97;4.28;;;;;;;-1.01;84.66;98332.47;4825138;29;20065;-63
2022/11/22 08:39:05;;;;;;;8.82;4.78;;;;;;;-1.07;84.89;98328.81;4857305;29;20037;-63
2022/11/22 08:41:31;;;;;;;9.52;4.45;;;;;;;-1.11;85.27;98322.41;4858093;29;20057;-62
2022/11/22 08:43:57;;;;;;;8.63;4.32;;;;;;;-1.12;85.63;98325.97;4855582;29;20518;-66
2022/11/22 08:46:22;;;;;;;7.68;3.85;;;;;;;-1.03;86.04;98324.03;4857675;29;20568;-63
2022/11/22 08:48:50;;;;;;;8.38;4.60;;;;;;;-1.00;86.44;98316.69;4856682;29;20642;-65
2022/11/22 08:51:17;;;;;;;7.97;4.40;;;;;;;-0.99;86.44;98320.09;4841331;29;20480;-65
2022/11/22 08:53:43;;;;;;;8.70;4.05;;;;;;;-0.98;86.28;98319.09;4857513;29;20101;-66
2022/11/22 08:56:14;;;;;;;8.52;3.90;;;;;;;-0.95;85.84;98316.09;4843699;29;20049;-64
2022/11/22 08:58:40;;;;;;;;;;;;;;;-0.86;86.49;98322.78;4863033;29;20049;-62
2022/11/22 09:01:07;;;;;;;8.50;3.88;;;;;;;-0.81;86.11;98317.00;4859367;29;20299;-62
2022/11/22 09:03:34;;;;;;;9.27;3.85;;;;;;;-0.79;85.99;98320.25;4844144;29;20424;-71
2022/11/22 09:06:12;;;;;;;7.00;3.88;;;;;;;-0.72;85.46;98310.66;4843837;29;20105;-71
2022/11/22 09:08:38;;;;;;;12.48;3.72;;;;;;;-0.72;85.07;98311.47;4859532;29;20073;-62
2022/11/22 09:11:08;;;;;;;5.20;2.97;;;;;;;-0.71;85.00;98305.28;4858894;29;20080;-65
2022/11/22 09:13:34;;;;;;;4.28;3.15;;;;;;;-0.70;84.85;98304.28;4855818;29;20053;-64
2022/11/22 09:16:06;;;;;;;4.82;3.08;;;;;;;-0.69;85.12;98305.06;4855948;29;20054;-65
2022/11/22 09:18:32;;;;;;;6.20;3.72;;;;;;;-0.62;85.31;98303.28;4841021;29;20554;-65
2022/11/22 09:21:04;;;;;;;6.72;3.42;;;;;;;-0.55;84.98;98300.75;4856940;29;20049;-68
2022/11/22 09:23:31;;;;;;;9.43;4.18;;;;;;;-0.54;84.68;98289.34;4858442;29;20561;-74
2022/11/22 09:26:05;;;;;;;7.43;4.15;;;;;;;-0.49;84.48;98292.97;4873020;29;20507;-75
2022/11/22 09:28:31;;;;;;;5.95;3.50;;;;;;;-0.55;84.77;98300.75;4855657;29;20045;-74
2022/11/22 09:31:08;;;;;;;5.75;3.70;;;;;;;-0.49;84.52;98294.78;4856842;29;20089;-70
2022/11/22 09:33:37;;;;;;;5.07;3.17;;;;;;;-0.46;84.24;98302.19;4839407;29;20461;-72
2022/11/22 09:36:09;;;;;;;6.03;3.97;;;;;;;-0.41;84.73;98292.00;4837864;29;20058;-71
2022/11/22 09:38:35;;;;;;;8.05;4.43;;;;;;;-0.40;85.18;98285.00;4874982;29;20806;-71
2022/11/22 09:41:22;;;;;;;5.50;3.78;;;;;;;-0.38;84.59;98290.81;4859067;29;20137;-72
2022/11/22 09:44:10;;;;;;;5.22;3.38;;;;;;;-0.45;84.94;98293.38;4859140;29;20068;-71
2022/11/22 09:46:38;;;;;;;7.45;3.75;;;;;;;-0.46;84.59;98289.97;4872067;29;20434;-71
2022/11/22 09:49:32;;;;;;;7.05;4.00;;;;;;;-0.41;85.17;98289.41;4874771;29;20045;-70
2022/11/22 09:52:05;;;;;;;7.70;4.32;;;;;;;-0.51;84.95;98294.16;4872127;29;20058;-71
2022/11/22 09:54:41;;;;;;;10.30;3.97;;;;;;;-0.44;85.58;98287.19;4874357;29;20045;-71
2022/11/22 09:57:17;;;;;;;6.93;4.20;;;;;;;-0.39;84.99;98297.00;4859142;29;20051;-72
2022/11/22 09:59:46;;;;;;;8.05;4.25;;;;;;;-0.31;85.44;98292.44;4857188;29;20041;-70
2022/11/22 10:02:30;;;;;;;8.45;4.80;;;;;;;-0.24;85.01;98292.47;4871949;29;20069;-70
2022/11/22 10:05:03;;;;;;;6.47;3.85;;;;;;;-0.25;85.01;98289.06;4854940;29;20053;-62
2022/11/22 10:07:40;;;;;;;8.10;3.70;;;;;;;-0.28;85.24;98289.44;4825460;29;20746;-64
2022/11/22 10:10:11;;;;;;;;;;;;;;;-0.32;85.32;98290.84;4874728;29;20125;-62
2022/11/22 10:12:56;;;;;;;6.10;3.85;;;;;;;-0.35;85.64;98286.03;4858511;29;19924;-65
2022/11/22 10:15:28;;;;;;;8.00;3.85;;;;;;;-0.29;86.08;98274.84;4871972;29;20499;-61
2022/11/22 10:18:20;;;;;;;7.57;4.10;;;;;;;-0.18;86.09;98283.06;4857603;29;20412;-62
2022/11/22 10:20:46;;;;;;;5.10;3.60;;;;;;;-0.23;85.69;98278.47;4872142;29;20091;-62
2022/11/22 10:23:23;;;;;;;7.95;4.43;;;;;;;-0.18;86.32;98280.47;4872013;29;20491;-62
2022/11/22 10:26:02;;;;;;;8.27;4.57;;;;;;;-0.20;86.66;98278.06;4872673;29;20137;-63
2022/11/22 10:28:40;;;;;;;8.05;4.53;;;;;;;-0.12;86.65;98271.88;4858443;29;20141;-63
2022/11/22 10:31:13;;;;;;;10.20;4.57;;;;;;;-0.08;86.64;98271.28;4883210;29;20050;-67
2022/11/22 10:33:45;;;;;;;4.88;3.58;;;;;;;-0.05;86.45;98270.91;4872429;29;20123;-64
2022/11/22 10:36:55;;;;;;;5.80;4.47;;;;;;;-0.03;85.72;98268.09;4859210;29;20495;-63
2022/11/22 10:39:29;;;;;;;8.98;5.07;;;;;;;-0.05;86.55;98263.09;4822044;29;20426;-63
2022/11/22 10:42:48;;;;;;;7.60;4.63;;;;;;;0.02;86.69;98254.47;4890710;29;20040;-64
2022/11/22 10:45:23;;;;;;;6.55;4.10;;;;;;;0.06;86.05;98261.72;4848841;29;20064;-65
2022/11/22 10:48:22;;;;;;;8.23;4.38;;;;;;;0.05;86.57;98259.31;4895563;29;20124;-66
2022/11/22 10:50:50;;;;;;;12.68;5.28;;;;;;;0.13;86.41;98262.53;4893122;29;20076;-67
2022/11/22 10:53:43;;;;;;;7.60;4.57;;;;;;;0.13;86.10;98261.72;4896080;29;20044;-66
2022/11/22 10:56:18;;;;;;;12.50;3.75;;;;;;;0.08;86.42;98258.91;4879881;29;20414;-65
2022/11/22 10:59:08;;;;;;;9.13;4.72;;;;;;;0.10;86.35;98246.50;4894822;29;20055;-65
2022/11/22 11:01:40;;;;;;;;;;;;;;;0.18;85.89;98236.69;4895327;29;20053;-64
2022/11/22 11:04:08;;;;;;;6.10;4.38;;;;;;;0.26;85.89;98240.88;4879461;29;19929;-64
2022/11/22 11:06:44;;;;;;;6.95;4.10;;;;;;;0.30;85.33;98230.88;4878642;29;20048;-63
2022/11/22 11:09:19;;;;;;;7.53;4.05;;;;;;;0.23;85.92;98225.66;4895160;29;20051;-64
2022/11/22 11:11:46;;;;;;;5.53;3.70;;;;;;;0.19;85.66;98225.25;4878536;29;20055;-63
2022/11/22 11:14:25;;;;;;;5.20;3.80;;;;;;;0.22;85.75;98222.25;4874302;29;20033;-65
2022/11/22 11:16:52;;;;;;;7.43;4.25;;;;;;;0.26;85.80;98225.25;4876139;29;20143;-65
2022/11/22 11:19:20;;;;;;;7.10;3.88;;;;;;;0.29;85.41;98226.66;4878193;29;20044;-64
2022/11/22 11:21:54;;;;;;;9.18;4.20;;;;;;;0.29;85.58;98213.63;4894534;29;20502;-65
2022/11/22 11:24:20;;;;;;;5.50;3.65;;;;;;;0.27;84.95;98205.22;4877527;29;20127;-64
2022/11/22 11:26:56;;;;;;;6.57;4.00;;;;;;;0.35;85.21;98220.63;4892985;29;20050;-63
2022/11/22 11:29:33;;;;;;;9.02;5.28;;;;;;;0.25;85.78;98223.66;4874075;29;20040;-64
2022/11/22 11:32:12;;;;;;;6.55;3.78;;;;;;;0.34;85.54;98216.44;4857089;29;20044;-62
2022/11/22 11:34:42;;;;;;;6.22;3.55;;;;;;;0.28;85.32;98217.25;4875040;29;20040;-64
2022/11/22 11:37:18;;;;;;;10.93;4.13;;;;;;;0.27;86.08;98216.44;4893189;29;20056;-63
2022/11/22 11:39:47;;;;;;;6.90;4.30;;;;;;;0.32;86.42;98219.22;4892624;29;20067;-62
2022/11/22 11:42:21;;;;;;;7.30;3.55;;;;;;;0.38;85.73;98215.84;4892755;29;20044;-63
2022/11/22 11:44:47;;;;;;;7.00;3.88;;;;;;;0.38;85.84;98212.41;4892523;29;20047;-65
2022/11/22 11:47:19;;;;;;;6.57;4.05;;;;;;;0.35;86.00;98205.78;4892571;29;20056;-63
2022/11/22 11:49:50;;;;;;;5.85;4.20;;;;;;;0.36;86.39;98206.63;4894160;29;20135;-66